sensor_id;sensor_type;location;lat;lon;timestamp;P1;durP1;ratioP1;P2;durP2;ratioP2
12980;SDS011;6555;50.468;8.480;2023-02-28T00:05:04;0.93;;;0.93;;
12980;SDS011;6555;50.468;8.480;2023-02-28T00:10:23;1.07;;;0.97;;
12980;SDS011;6555;50.468;8.480;2023-02-28T00:16:00;1.30;;;1.20;;
12980;SDS011;6555;50.468;8.480;2023-02-28T00:21:19;1.00;;;0.90;;
12980;SDS011;6555;50.468;8.480;2023-02-28T00:26:49;1.70;;;0.90;;
12980;SDS011;6555;50.468;8.480;2023-02-28T00:32:05;0.80;;;0.77;;
12980;SDS011;6555;50.468;8.480;2023-02-28T00:37:37;1.10;;;1.00;;
12980;SDS011;6555;50.468;8.480;2023-02-28T00:42:54;1.10;;;1.00;;
12980;SDS011;6555;50.468;8.480;2023-02-28T00:48:25;1.20;;;1.10;;
12980;SDS011;6555;50.468;8.480;2023-02-28T00:53:42;1.00;;;0.90;;
12980;SDS011;6555;50.468;8.480;2023-02-28T00:59:13;1.03;;;1.00;;
12980;SDS011;6555;50.468;8.480;2023-02-28T01:04:31;0.73;;;0.73;;
12980;SDS011;6555;50.468;8.480;2023-02-28T01:10:02;1.10;;;1.00;;
12980;SDS011;6555;50.468;8.480;2023-02-28T01:15:19;0.93;;;0.83;;
12980;SDS011;6555;50.468;8.480;2023-02-28T01:20:49;1.23;;;1.13;;
12980;SDS011;6555;50.468;8.480;2023-02-28T01:26:08;0.67;;;0.67;;
12980;SDS011;6555;50.468;8.480;2023-02-28T01:31:40;1.13;;;1.00;;
12980;SDS011;6555;50.468;8.480;2023-02-28T01:36:56;1.07;;;0.90;;
12980;SDS011;6555;50.468;8.480;2023-02-28T01:42:27;1.10;;;1.00;;
12980;SDS011;6555;50.468;8.480;2023-02-28T01:47:44;0.87;;;0.87;;
12980;SDS011;6555;50.468;8.480;2023-02-28T01:53:15;0.90;;;0.90;;
12980;SDS011;6555;50.468;8.480;2023-02-28T01:58:35;0.87;;;0.87;;
12980;SDS011;6555;50.468;8.480;2023-02-28T02:04:06;1.10;;;1.00;;
12980;SDS011;6555;50.468;8.480;2023-02-28T02:09:22;0.80;;;0.80;;
12980;SDS011;6555;50.468;8.480;2023-02-28T02:14:57;0.70;;;0.70;;
12980;SDS011;6555;50.468;8.480;2023-02-28T02:20:40;0.90;;;0.90;;
12980;SDS011;6555;50.468;8.480;2023-02-28T02:32:10;0.80;;;0.73;;
12980;SDS011;6555;50.468;8.480;2023-02-28T02:37:53;0.80;;;0.70;;
12980;SDS011;6555;50.468;8.480;2023-02-28T02:43:16;1.00;;;1.00;;
12980;SDS011;6555;50.468;8.480;2023-02-28T02:48:49;1.20;;;1.10;;
12980;SDS011;6555;50.468;8.480;2023-02-28T02:54:11;0.80;;;0.80;;
12980;SDS011;6555;50.468;8.480;2023-02-28T02:59:45;0.70;;;0.70;;
12980;SDS011;6555;50.468;8.480;2023-02-28T03:05:04;1.10;;;1.00;;
12980;SDS011;6555;50.468;8.480;2023-02-28T03:10:40;1.23;;;0.80;;
12980;SDS011;6555;50.468;8.480;2023-02-28T03:16:11;1.20;;;0.90;;
12980;SDS011;6555;50.468;8.480;2023-02-28T03:21:56;0.77;;;0.77;;
12980;SDS011;6555;50.468;8.480;2023-02-28T03:27:26;1.10;;;1.00;;
12980;SDS011;6555;50.468;8.480;2023-02-28T03:36:00;1.20;;;1.10;;
12980;SDS011;6555;50.468;8.480;2023-02-28T03:41:35;0.87;;;0.87;;
12980;SDS011;6555;50.468;8.480;2023-02-28T03:46:56;0.80;;;0.80;;
12980;SDS011;6555;50.468;8.480;2023-02-28T03:52:31;0.93;;;0.90;;
12980;SDS011;6555;50.468;8.480;2023-02-28T03:57:52;0.90;;;0.90;;
12980;SDS011;6555;50.468;8.480;2023-02-28T04:03:27;0.87;;;0.83;;
12980;SDS011;6555;50.468;8.480;2023-02-28T04:08:45;1.17;;;1.00;;
12980;SDS011;6555;50.468;8.480;2023-02-28T04:14:15;1.30;;;1.00;;
12980;SDS011;6555;50.468;8.480;2023-02-28T04:19:31;1.17;;;1.07;;
12980;SDS011;6555;50.468;8.480;2023-02-28T04:25:03;1.10;;;1.00;;
12980;SDS011;6555;50.468;8.480;2023-02-28T04:30:23;1.33;;;0.97;;
12980;SDS011;6555;50.468;8.480;2023-02-28T04:35:59;0.97;;;0.93;;
12980;SDS011;6555;50.468;8.480;2023-02-28T04:41:31;0.80;;;0.77;;
12980;SDS011;6555;50.468;8.480;2023-02-28T04:46:48;1.40;;;1.10;;
12980;SDS011;6555;50.468;8.480;2023-02-28T04:52:19;0.87;;;0.87;;
12980;SDS011;6555;50.468;8.480;2023-02-28T04:57:36;1.00;;;1.00;;
12980;SDS011;6555;50.468;8.480;2023-02-28T05:03:07;1.20;;;1.10;;
12980;SDS011;6555;50.468;8.480;2023-02-28T05:08:24;0.97;;;0.97;;
12980;SDS011;6555;50.468;8.480;2023-02-28T05:13:55;0.90;;;0.90;;
12980;SDS011;6555;50.468;8.480;2023-02-28T05:19:11;1.03;;;1.00;;
12980;SDS011;6555;50.468;8.480;2023-02-28T05:24:42;0.87;;;0.87;;
12980;SDS011;6555;50.468;8.480;2023-02-28T05:29:59;1.07;;;0.97;;
12980;SDS011;6555;50.468;8.480;2023-02-28T05:35:31;1.20;;;1.10;;
12980;SDS011;6555;50.468;8.480;2023-02-28T05:41:04;1.10;;;1.00;;
12980;SDS011;6555;50.468;8.480;2023-02-28T05:46:22;1.43;;;1.23;;
12980;SDS011;6555;50.468;8.480;2023-02-28T05:51:52;1.13;;;1.03;;
12980;SDS011;6555;50.468;8.480;2023-02-28T05:57:08;1.13;;;1.07;;
12980;SDS011;6555;50.468;8.480;2023-02-28T06:02:39;1.13;;;1.00;;
12980;SDS011;6555;50.468;8.480;2023-02-28T06:07:56;1.10;;;1.00;;
12980;SDS011;6555;50.468;8.480;2023-02-28T06:13:27;0.90;;;0.90;;
12980;SDS011;6555;50.468;8.480;2023-02-28T06:18:44;1.17;;;1.00;;
12980;SDS011;6555;50.468;8.480;2023-02-28T06:24:17;1.10;;;1.00;;
12980;SDS011;6555;50.468;8.480;2023-02-28T06:29:34;0.97;;;0.93;;
12980;SDS011;6555;50.468;8.480;2023-02-28T06:35:06;1.00;;;1.00;;
12980;SDS011;6555;50.468;8.480;2023-02-28T06:40:36;0.87;;;0.87;;
12980;SDS011;6555;50.468;8.480;2023-02-28T06:45:53;1.73;;;1.63;;
12980;SDS011;6555;50.468;8.480;2023-02-28T06:51:25;1.60;;;1.23;;
12980;SDS011;6555;50.468;8.480;2023-02-28T06:56:42;1.50;;;1.40;;
12980;SDS011;6555;50.468;8.480;2023-02-28T07:02:12;1.30;;;1.10;;
12980;SDS011;6555;50.468;8.480;2023-02-28T07:07:30;1.53;;;1.23;;
12980;SDS011;6555;50.468;8.480;2023-02-28T07:13:01;1.50;;;1.40;;
12980;SDS011;6555;50.468;8.480;2023-02-28T07:18:19;1.90;;;1.57;;
12980;SDS011;6555;50.468;8.480;2023-02-28T07:23:51;1.60;;;1.30;;
12980;SDS011;6555;50.468;8.480;2023-02-28T07:29:14;1.53;;;1.43;;
12980;SDS011;6555;50.468;8.480;2023-02-28T07:34:44;1.60;;;1.27;;
12980;SDS011;6555;50.468;8.480;2023-02-28T07:40:16;1.30;;;1.20;;
12980;SDS011;6555;50.468;8.480;2023-02-28T07:45:33;1.37;;;1.20;;
12980;SDS011;6555;50.468;8.480;2023-02-28T07:51:03;1.40;;;1.00;;
12980;SDS011;6555;50.468;8.480;2023-02-28T07:56:22;1.40;;;1.30;;
12980;SDS011;6555;50.468;8.480;2023-02-28T08:01:52;1.50;;;1.40;;
12980;SDS011;6555;50.468;8.480;2023-02-28T08:07:08;2.10;;;1.80;;
12980;SDS011;6555;50.468;8.480;2023-02-28T08:12:40;1.87;;;1.67;;
12980;SDS011;6555;50.468;8.480;2023-02-28T08:17:57;1.90;;;1.70;;
12980;SDS011;6555;50.468;8.480;2023-02-28T08:23:28;2.57;;;1.50;;
12980;SDS011;6555;50.468;8.480;2023-02-28T08:28:46;1.77;;;1.63;;
12980;SDS011;6555;50.468;8.480;2023-02-28T08:34:16;2.27;;;1.77;;
12980;SDS011;6555;50.468;8.480;2023-02-28T08:39:33;3.83;;;2.00;;
12980;SDS011;6555;50.468;8.480;2023-02-28T08:45:05;2.57;;;1.60;;
12980;SDS011;6555;50.468;8.480;2023-02-28T08:50:22;1.67;;;1.57;;
12980;SDS011;6555;50.468;8.480;2023-02-28T08:55:56;3.03;;;1.60;;
12980;SDS011;6555;50.468;8.480;2023-02-28T09:01:15;1.70;;;1.60;;
12980;SDS011;6555;50.468;8.480;2023-02-28T09:06:46;2.77;;;1.77;;
12980;SDS011;6555;50.468;8.480;2023-02-28T09:12:03;2.70;;;1.80;;
12980;SDS011;6555;50.468;8.480;2023-02-28T09:17:35;2.20;;;2.00;;
12980;SDS011;6555;50.468;8.480;2023-02-28T09:22:54;1.57;;;1.33;;
12980;SDS011;6555;50.468;8.480;2023-02-28T09:28:24;2.20;;;1.93;;
12980;SDS011;6555;50.468;8.480;2023-02-28T09:33:42;1.90;;;1.70;;
12980;SDS011;6555;50.468;8.480;2023-02-28T09:39:12;2.73;;;1.97;;
12980;SDS011;6555;50.468;8.480;2023-02-28T09:44:31;1.80;;;1.63;;
12980;SDS011;6555;50.468;8.480;2023-02-28T09:50:11;2.97;;;2.03;;
12980;SDS011;6555;50.468;8.480;2023-02-28T09:55:39;2.10;;;1.90;;
12980;SDS011;6555;50.468;8.480;2023-02-28T10:01:12;3.80;;;2.60;;
12980;SDS011;6555;50.468;8.480;2023-02-28T10:06:41;2.77;;;2.27;;
12980;SDS011;6555;50.468;8.480;2023-02-28T10:12:15;2.30;;;2.10;;
12980;SDS011;6555;50.468;8.480;2023-02-28T10:17:35;1.97;;;1.77;;
12980;SDS011;6555;50.468;8.480;2023-02-28T10:23:21;2.13;;;1.93;;
12980;SDS011;6555;50.468;8.480;2023-02-28T10:28:41;2.80;;;2.50;;
12980;SDS011;6555;50.468;8.480;2023-02-28T10:34:12;2.67;;;1.93;;
12980;SDS011;6555;50.468;8.480;2023-02-28T10:39:37;2.20;;;1.87;;
12980;SDS011;6555;50.468;8.480;2023-02-28T10:45:12;4.00;;;2.10;;
12980;SDS011;6555;50.468;8.480;2023-02-28T10:50:33;3.60;;;2.00;;
12980;SDS011;6555;50.468;8.480;2023-02-28T10:56:16;3.50;;;2.27;;
12980;SDS011;6555;50.468;8.480;2023-02-28T11:01:37;2.73;;;2.07;;
12980;SDS011;6555;50.468;8.480;2023-02-28T11:07:16;2.60;;;2.20;;
12980;SDS011;6555;50.468;8.480;2023-02-28T11:12:42;2.33;;;2.03;;
12980;SDS011;6555;50.468;8.480;2023-02-28T11:18:20;2.97;;;1.93;;
12980;SDS011;6555;50.468;8.480;2023-02-28T11:23:40;2.60;;;2.40;;
12980;SDS011;6555;50.468;8.480;2023-02-28T11:29:16;3.00;;;2.70;;
12980;SDS011;6555;50.468;8.480;2023-02-28T11:34:35;4.57;;;3.03;;
12980;SDS011;6555;50.468;8.480;2023-02-28T11:40:09;4.67;;;3.27;;
12980;SDS011;6555;50.468;8.480;2023-02-28T11:45:36;3.00;;;2.30;;
12980;SDS011;6555;50.468;8.480;2023-02-28T11:51:20;2.57;;;2.27;;
12980;SDS011;6555;50.468;8.480;2023-02-28T11:56:41;2.17;;;1.97;;
12980;SDS011;6555;50.468;8.480;2023-02-28T12:02:25;5.10;;;2.20;;
12980;SDS011;6555;50.468;8.480;2023-02-28T12:07:47;2.20;;;1.90;;
12980;SDS011;6555;50.468;8.480;2023-02-28T12:13:25;2.43;;;2.10;;
12980;SDS011;6555;50.468;8.480;2023-02-28T12:18:56;2.40;;;2.20;;
12980;SDS011;6555;50.468;8.480;2023-02-28T12:24:48;2.40;;;2.20;;
12980;SDS011;6555;50.468;8.480;2023-02-28T12:30:25;2.60;;;2.40;;
12980;SDS011;6555;50.468;8.480;2023-02-28T12:36:00;3.27;;;2.80;;
12980;SDS011;6555;50.468;8.480;2023-02-28T12:41:39;2.83;;;2.57;;
12980;SDS011;6555;50.468;8.480;2023-02-28T12:46:58;3.47;;;3.03;;
12980;SDS011;6555;50.468;8.480;2023-02-28T12:52:35;3.27;;;2.97;;
12980;SDS011;6555;50.468;8.480;2023-02-28T12:57:58;4.83;;;3.83;;
12980;SDS011;6555;50.468;8.480;2023-02-28T13:03:41;5.00;;;3.77;;
12980;SDS011;6555;50.468;8.480;2023-02-28T13:09:12;6.23;;;3.77;;
12980;SDS011;6555;50.468;8.480;2023-02-28T13:14:43;3.00;;;2.30;;
12980;SDS011;6555;50.468;8.480;2023-02-28T13:19:59;4.37;;;2.90;;
12980;SDS011;6555;50.468;8.480;2023-02-28T13:31:11;4.13;;;2.70;;
12980;SDS011;6555;50.468;8.480;2023-02-28T13:36:42;4.10;;;3.00;;
12980;SDS011;6555;50.468;8.480;2023-02-28T13:42:22;4.00;;;3.60;;
12980;SDS011;6555;50.468;8.480;2023-02-28T13:47:52;4.00;;;3.27;;
12980;SDS011;6555;50.468;8.480;2023-02-28T13:53:46;3.13;;;2.70;;
12980;SDS011;6555;50.468;8.480;2023-02-28T13:59:16;2.87;;;2.53;;
12980;SDS011;6555;50.468;8.480;2023-02-28T14:04:59;2.50;;;2.23;;
12980;SDS011;6555;50.468;8.480;2023-02-28T14:10:22;3.00;;;2.70;;
12980;SDS011;6555;50.468;8.480;2023-02-28T14:15:56;3.93;;;3.20;;
12980;SDS011;6555;50.468;8.480;2023-02-28T14:21:16;3.47;;;2.40;;
12980;SDS011;6555;50.468;8.480;2023-02-28T14:26:55;3.63;;;3.07;;
12980;SDS011;6555;50.468;8.480;2023-02-28T14:32:21;3.63;;;2.97;;
12980;SDS011;6555;50.468;8.480;2023-02-28T14:37:58;3.20;;;2.90;;
12980;SDS011;6555;50.468;8.480;2023-02-28T14:43:19;2.77;;;2.20;;
12980;SDS011;6555;50.468;8.480;2023-02-28T14:48:50;2.50;;;2.30;;
12980;SDS011;6555;50.468;8.480;2023-02-28T14:54:12;2.90;;;2.47;;
12980;SDS011;6555;50.468;8.480;2023-02-28T14:59:45;3.90;;;3.50;;
12980;SDS011;6555;50.468;8.480;2023-02-28T15:05:10;3.47;;;3.00;;
12980;SDS011;6555;50.468;8.480;2023-02-28T15:10:59;3.70;;;2.70;;
12980;SDS011;6555;50.468;8.480;2023-02-28T15:16:19;2.87;;;2.57;;
12980;SDS011;6555;50.468;8.480;2023-02-28T15:21:54;2.50;;;2.30;;
12980;SDS011;6555;50.468;8.480;2023-02-28T15:27:19;4.70;;;3.60;;
12980;SDS011;6555;50.468;8.480;2023-02-28T15:33:03;4.03;;;2.73;;
12980;SDS011;6555;50.468;8.480;2023-02-28T15:38:23;3.30;;;3.00;;
12980;SDS011;6555;50.468;8.480;2023-02-28T15:44:14;7.53;;;3.50;;
12980;SDS011;6555;50.468;8.480;2023-02-28T15:49:36;2.63;;;2.33;;
12980;SDS011;6555;50.468;8.480;2023-02-28T15:55:11;2.53;;;2.30;;
12980;SDS011;6555;50.468;8.480;2023-02-28T16:00:34;2.90;;;2.13;;
12980;SDS011;6555;50.468;8.480;2023-02-28T16:06:26;4.80;;;1.63;;
12980;SDS011;6555;50.468;8.480;2023-02-28T16:11:50;2.60;;;2.40;;
12980;SDS011;6555;50.468;8.480;2023-02-28T16:17:25;2.20;;;2.00;;
12980;SDS011;6555;50.468;8.480;2023-02-28T16:22:42;2.20;;;1.80;;
12980;SDS011;6555;50.468;8.480;2023-02-28T16:28:15;2.10;;;1.90;;
12980;SDS011;6555;50.468;8.480;2023-02-28T16:33:36;1.90;;;1.70;;
12980;SDS011;6555;50.468;8.480;2023-02-28T16:39:05;2.30;;;1.70;;
12980;SDS011;6555;50.468;8.480;2023-02-28T16:44:24;2.07;;;1.47;;
12980;SDS011;6555;50.468;8.480;2023-02-28T16:49:59;1.60;;;1.40;;
12980;SDS011;6555;50.468;8.480;2023-02-28T16:55:15;2.33;;;1.70;;
12980;SDS011;6555;50.468;8.480;2023-02-28T17:00:45;2.70;;;1.60;;
12980;SDS011;6555;50.468;8.480;2023-02-28T17:06:03;1.63;;;1.40;;
12980;SDS011;6555;50.468;8.480;2023-02-28T17:11:33;2.37;;;1.70;;
12980;SDS011;6555;50.468;8.480;2023-02-28T17:16:50;1.83;;;1.30;;
12980;SDS011;6555;50.468;8.480;2023-02-28T17:22:21;1.33;;;1.23;;
12980;SDS011;6555;50.468;8.480;2023-02-28T17:27:37;1.40;;;1.30;;
12980;SDS011;6555;50.468;8.480;2023-02-28T17:33:08;2.20;;;1.63;;
12980;SDS011;6555;50.468;8.480;2023-02-28T17:38:25;2.97;;;1.50;;
12980;SDS011;6555;50.468;8.480;2023-02-28T17:43:54;2.47;;;1.50;;
12980;SDS011;6555;50.468;8.480;2023-02-28T17:49:11;1.60;;;1.30;;
12980;SDS011;6555;50.468;8.480;2023-02-28T17:54:43;2.10;;;1.20;;
12980;SDS011;6555;50.468;8.480;2023-02-28T18:00:00;1.40;;;1.27;;
12980;SDS011;6555;50.468;8.480;2023-02-28T18:05:30;1.73;;;1.50;;
12980;SDS011;6555;50.468;8.480;2023-02-28T18:10:48;2.63;;;1.60;;
12980;SDS011;6555;50.468;8.480;2023-02-28T18:16:19;1.60;;;1.50;;
12980;SDS011;6555;50.468;8.480;2023-02-28T18:21:36;1.50;;;1.40;;
12980;SDS011;6555;50.468;8.480;2023-02-28T18:27:07;3.07;;;1.53;;
12980;SDS011;6555;50.468;8.480;2023-02-28T18:32:25;1.80;;;1.60;;
12980;SDS011;6555;50.468;8.480;2023-02-28T18:37:54;1.60;;;1.40;;
12980;SDS011;6555;50.468;8.480;2023-02-28T18:43:26;1.67;;;1.50;;
12980;SDS011;6555;50.468;8.480;2023-02-28T18:48:43;1.60;;;1.50;;
12980;SDS011;6555;50.468;8.480;2023-02-28T18:54:14;2.70;;;1.90;;
12980;SDS011;6555;50.468;8.480;2023-02-28T18:59:32;1.73;;;1.53;;
12980;SDS011;6555;50.468;8.480;2023-02-28T19:05:01;1.77;;;1.50;;
12980;SDS011;6555;50.468;8.480;2023-02-28T19:10:18;1.83;;;1.50;;
12980;SDS011;6555;50.468;8.480;2023-02-28T19:15:49;1.60;;;1.47;;
12980;SDS011;6555;50.468;8.480;2023-02-28T19:21:06;2.20;;;1.80;;
12980;SDS011;6555;50.468;8.480;2023-02-28T19:26:36;1.73;;;1.63;;
12980;SDS011;6555;50.468;8.480;2023-02-28T19:31:55;1.57;;;1.40;;
12980;SDS011;6555;50.468;8.480;2023-02-28T19:37:24;2.13;;;1.60;;
12980;SDS011;6555;50.468;8.480;2023-02-28T19:42:54;1.60;;;1.50;;
12980;SDS011;6555;50.468;8.480;2023-02-28T19:48:14;1.57;;;1.47;;
12980;SDS011;6555;50.468;8.480;2023-02-28T19:53:47;1.93;;;1.60;;
12980;SDS011;6555;50.468;8.480;2023-02-28T19:59:03;1.70;;;1.53;;
12980;SDS011;6555;50.468;8.480;2023-02-28T20:04:39;2.20;;;1.50;;
12980;SDS011;6555;50.468;8.480;2023-02-28T20:10:03;2.53;;;1.70;;
12980;SDS011;6555;50.468;8.480;2023-02-28T20:15:20;1.60;;;1.50;;
12980;SDS011;6555;50.468;8.480;2023-02-28T20:20:51;2.27;;;1.70;;
12980;SDS011;6555;50.468;8.480;2023-02-28T20:26:08;1.27;;;1.17;;
12980;SDS011;6555;50.468;8.480;2023-02-28T20:31:40;1.80;;;1.47;;
12980;SDS011;6555;50.468;8.480;2023-02-28T20:36:58;1.93;;;1.60;;
12980;SDS011;6555;50.468;8.480;2023-02-28T20:42:28;1.93;;;1.50;;
12980;SDS011;6555;50.468;8.480;2023-02-28T20:47:44;3.20;;;1.87;;
12980;SDS011;6555;50.468;8.480;2023-02-28T20:53:15;2.30;;;2.10;;
12980;SDS011;6555;50.468;8.480;2023-02-28T20:58:33;2.20;;;1.90;;
12980;SDS011;6555;50.468;8.480;2023-02-28T21:04:05;1.63;;;1.53;;
12980;SDS011;6555;50.468;8.480;2023-02-28T21:09:24;1.77;;;1.67;;
12980;SDS011;6555;50.468;8.480;2023-02-28T21:14:54;1.97;;;1.73;;
12980;SDS011;6555;50.468;8.480;2023-02-28T21:20:10;2.10;;;1.63;;
12980;SDS011;6555;50.468;8.480;2023-02-28T21:25:44;1.90;;;1.60;;
12980;SDS011;6555;50.468;8.480;2023-02-28T21:31:01;2.13;;;1.90;;
12980;SDS011;6555;50.468;8.480;2023-02-28T21:36:34;2.10;;;1.90;;
12980;SDS011;6555;50.468;8.480;2023-02-28T21:41:54;2.00;;;1.63;;
12980;SDS011;6555;50.468;8.480;2023-02-28T21:47:25;2.10;;;1.83;;
12980;SDS011;6555;50.468;8.480;2023-02-28T21:52:43;2.33;;;2.03;;
12980;SDS011;6555;50.468;8.480;2023-02-28T21:58:14;2.20;;;1.90;;
12980;SDS011;6555;50.468;8.480;2023-02-28T22:03:31;2.87;;;1.93;;
12980;SDS011;6555;50.468;8.480;2023-02-28T22:09:02;2.33;;;1.90;;
12980;SDS011;6555;50.468;8.480;2023-02-28T22:14:22;2.20;;;1.90;;
12980;SDS011;6555;50.468;8.480;2023-02-28T22:19:53;2.47;;;1.93;;
12980;SDS011;6555;50.468;8.480;2023-02-28T22:25:09;3.10;;;1.80;;
12980;SDS011;6555;50.468;8.480;2023-02-28T22:30:40;2.43;;;1.93;;
12980;SDS011;6555;50.468;8.480;2023-02-28T22:36:04;3.13;;;1.97;;
12980;SDS011;6555;50.468;8.480;2023-02-28T22:41:35;2.73;;;2.20;;
12980;SDS011;6555;50.468;8.480;2023-02-28T22:47:06;2.27;;;2.07;;
12980;SDS011;6555;50.468;8.480;2023-02-28T22:52:23;3.53;;;1.90;;
12980;SDS011;6555;50.468;8.480;2023-02-28T22:57:53;2.13;;;1.60;;
12980;SDS011;6555;50.468;8.480;2023-02-28T23:03:10;2.90;;;2.27;;
12980;SDS011;6555;50.468;8.480;2023-02-28T23:08:41;2.80;;;2.37;;
12980;SDS011;6555;50.468;8.480;2023-02-28T23:13:58;2.33;;;2.13;;
12980;SDS011;6555;50.468;8.480;2023-02-28T23:19:30;2.57;;;2.10;;
12980;SDS011;6555;50.468;8.480;2023-02-28T23:24:47;2.03;;;1.83;;
12980;SDS011;6555;50.468;8.480;2023-02-28T23:30:17;3.57;;;2.50;;
12980;SDS011;6555;50.468;8.480;2023-02-28T23:35:35;2.47;;;2.00;;
12980;SDS011;6555;50.468;8.480;2023-02-28T23:41:06;2.13;;;1.93;;
12980;SDS011;6555;50.468;8.480;2023-02-28T23:46:23;2.80;;;1.93;;
12980;SDS011;6555;50.468;8.480;2023-02-28T23:51:54;2.53;;;2.10;;
12980;SDS011;6555;50.468;8.480;2023-02-28T23:57:11;2.53;;;2.10;;
